createdAt,value
2023-06-18T00:02:03.814Z,100.00
2023-06-18T00:04:35.152Z,100.00
2023-06-18T00:07:06.702Z,100.00
2023-06-18T00:09:38.296Z,100.00
2023-06-18T00:12:09.973Z,100.00
2023-06-18T00:14:41.355Z,100.00
2023-06-18T00:17:12.752Z,100.00
2023-06-18T00:19:44.070Z,100.00
2023-06-18T00:22:16.436Z,100.00
2023-06-18T00:24:47.768Z,100.00
2023-06-18T00:27:21.186Z,100.00
2023-06-18T00:29:53.036Z,100.00
2023-06-18T00:32:24.383Z,100.00
2023-06-18T00:34:55.710Z,100.00
2023-06-18T00:37:28.827Z,100.00
2023-06-18T00:40:00.231Z,100.00
2023-06-18T00:42:31.651Z,100.00
2023-06-18T00:45:04.382Z,100.00
2023-06-18T00:47:45.513Z,100.00
2023-06-18T00:50:18.615Z,100.00
2023-06-18T00:52:50.997Z,100.00
2023-06-18T00:55:22.840Z,100.00
2023-06-18T00:58:00.788Z,100.00
2023-06-18T01:00:35.566Z,100.00
2023-06-18T01:03:19.082Z,100.00
2023-06-18T01:05:55.199Z,100.00
2023-06-18T01:08:29.182Z,100.00
2023-06-18T01:11:03.255Z,100.00
2023-06-18T01:13:37.684Z,100.00
2023-06-18T01:16:09.933Z,100.00
2023-06-18T01:18:46.434Z,100.00
2023-06-18T01:21:21.590Z,100.00
2023-06-18T01:23:54.050Z,100.00
2023-06-18T01:26:27.542Z,100.00
2023-06-18T01:29:00.134Z,100.00
2023-06-18T01:31:40.234Z,100.00
2023-06-18T01:34:11.534Z,100.00
2023-06-18T01:37:25.927Z,100.00
2023-06-18T01:40:32.711Z,100.00
2023-06-18T01:43:22.308Z,100.00
2023-06-18T01:45:58.881Z,100.00
2023-06-18T01:48:36.595Z,100.00
2023-06-18T01:51:08.720Z,100.00
2023-06-18T01:53:41.948Z,100.00
2023-06-18T01:56:14.473Z,100.00
2023-06-18T01:58:46.084Z,100.00
2023-06-18T02:01:18.053Z,100.00
2023-06-18T02:03:49.582Z,100.00
2023-06-18T02:06:21.138Z,100.00
2023-06-18T02:08:52.516Z,100.00
2023-06-18T02:11:24.436Z,100.00
2023-06-18T02:13:55.785Z,100.00
2023-06-18T02:16:27.257Z,100.00
2023-06-18T02:18:58.697Z,100.00
2023-06-18T02:21:30.127Z,100.00
2023-06-18T02:24:01.475Z,100.00
2023-06-18T02:26:32.889Z,100.00
2023-06-18T02:29:04.273Z,100.00
2023-06-18T02:31:36.036Z,100.00
2023-06-18T02:34:07.408Z,100.00
2023-06-18T02:36:39.905Z,100.00
2023-06-18T02:39:11.497Z,100.00
2023-06-18T02:41:42.852Z,100.00
2023-06-18T02:44:14.257Z,100.00
2023-06-18T02:46:45.587Z,100.00
2023-06-18T02:49:16.994Z,100.00
2023-06-18T02:51:49.184Z,100.00
2023-06-18T02:54:21.393Z,100.00
2023-06-18T02:56:52.766Z,100.00
2023-06-18T02:59:24.249Z,100.00
2023-06-18T03:01:55.612Z,100.00
2023-06-18T03:04:26.945Z,100.00
2023-06-18T03:07:01.747Z,100.00
2023-06-18T03:09:33.061Z,100.00
2023-06-18T03:12:05.106Z,100.00
2023-06-18T03:14:36.454Z,100.00
2023-06-18T03:17:07.894Z,100.00
2023-06-18T03:19:39.511Z,100.00
2023-06-18T03:22:11.262Z,100.00
2023-06-18T03:24:42.808Z,100.00
2023-06-18T03:27:14.243Z,100.00
2023-06-18T03:29:46.110Z,100.00
2023-06-18T03:32:17.602Z,100.00
2023-06-18T03:34:49.758Z,100.00
2023-06-18T03:37:21.624Z,100.00
2023-06-18T03:39:52.989Z,100.00
2023-06-18T03:42:25.023Z,100.00
2023-06-18T03:44:56.384Z,100.00
2023-06-18T03:47:27.857Z,100.00
2023-06-18T03:49:59.277Z,100.00
2023-06-18T03:52:30.654Z,100.00
2023-06-18T03:55:02.211Z,100.00
2023-06-18T03:57:33.601Z,100.00
2023-06-18T04:00:10.060Z,100.00
2023-06-18T04:02:41.969Z,99.99
2023-06-18T04:05:13.544Z,100.00
2023-06-18T04:07:44.916Z,99.97
2023-06-18T04:10:16.263Z,100.00
2023-06-18T04:12:47.591Z,99.99
2023-06-18T04:15:18.950Z,99.82
2023-06-18T04:17:50.348Z,99.50
2023-06-18T04:20:22.253Z,99.45
2023-06-18T04:22:53.740Z,99.82
2023-06-18T04:25:25.077Z,99.61
2023-06-18T04:27:56.873Z,99.54
2023-06-18T04:30:28.277Z,99.25
2023-06-18T04:32:59.644Z,99.08
2023-06-18T04:35:31.625Z,98.99
2023-06-18T04:38:02.975Z,98.70
2023-06-18T04:40:34.325Z,98.74
2023-06-18T04:43:05.965Z,98.54
2023-06-18T04:45:38.498Z,98.56
2023-06-18T04:48:10.177Z,98.62
2023-06-18T04:50:42.340Z,98.48
2023-06-18T04:53:13.648Z,98.15
2023-06-18T04:55:45.138Z,98.36
2023-06-18T04:58:16.561Z,98.22
2023-06-18T05:00:47.983Z,98.42
2023-06-18T05:03:19.463Z,98.30
2023-06-18T05:05:50.974Z,98.20
2023-06-18T05:08:22.443Z,98.58
2023-06-18T05:10:53.835Z,98.31
2023-06-18T05:13:25.170Z,98.24
2023-06-18T05:15:56.518Z,98.83
2023-06-18T05:18:27.850Z,98.22
2023-06-18T05:20:59.188Z,98.15
2023-06-18T05:23:30.661Z,98.72
2023-06-18T05:26:02.150Z,98.21
2023-06-18T05:28:33.479Z,97.88
2023-06-18T05:31:04.810Z,98.17
2023-06-18T05:33:36.157Z,97.80
2023-06-18T05:36:07.751Z,98.21
2023-06-18T05:38:39.156Z,97.81
2023-06-18T05:41:10.579Z,97.73
2023-06-18T05:43:41.884Z,97.63
2023-06-18T05:46:13.301Z,97.75
2023-06-18T05:48:44.665Z,97.76
2023-06-18T05:51:16.657Z,95.83
2023-06-18T05:53:48.009Z,91.59
2023-06-18T05:56:19.337Z,85.93
2023-06-18T05:58:50.658Z,79.98
2023-06-18T06:01:22.050Z,75.75
2023-06-18T06:03:53.524Z,71.87
2023-06-18T06:06:24.897Z,70.05
2023-06-18T06:08:56.524Z,68.11
2023-06-18T06:11:27.903Z,66.73
2023-06-18T06:13:59.776Z,65.02
2023-06-18T06:16:31.223Z,63.41
2023-06-18T06:19:02.690Z,62.13
2023-06-18T06:21:34.994Z,60.86
2023-06-18T06:24:07.196Z,60.70
2023-06-18T06:26:38.595Z,60.71
2023-06-18T06:29:10.063Z,59.80
2023-06-18T06:31:41.641Z,59.76
2023-06-18T06:34:12.951Z,59.76
2023-06-18T06:36:44.465Z,58.28
2023-06-18T06:39:17.590Z,57.74
2023-06-18T06:41:48.971Z,56.34
2023-06-18T06:44:20.461Z,55.72
2023-06-18T06:46:51.837Z,55.27
2023-06-18T06:49:23.153Z,55.86
2023-06-18T06:51:56.469Z,56.26
2023-06-18T06:54:27.888Z,57.49
2023-06-18T06:56:59.249Z,58.47
2023-06-18T06:59:31.824Z,59.50
2023-06-18T07:02:03.419Z,60.04
2023-06-18T07:04:34.781Z,59.88
2023-06-18T07:07:06.156Z,61.66
2023-06-18T07:09:37.469Z,61.93
2023-06-18T07:12:09.146Z,61.84
2023-06-18T07:14:40.671Z,61.63
2023-06-18T07:17:12.107Z,61.79
2023-06-18T07:19:43.470Z,62.38
2023-06-18T07:22:14.801Z,62.25
2023-06-18T07:24:46.122Z,62.36
2023-06-18T07:27:17.540Z,62.66
2023-06-18T07:29:48.876Z,62.68
2023-06-18T07:32:20.248Z,62.40
2023-06-18T07:34:51.725Z,63.02
2023-06-18T07:37:23.054Z,62.85
2023-06-18T07:39:55.992Z,61.85
2023-06-18T07:42:27.358Z,61.79
2023-06-18T07:44:58.787Z,61.09
2023-06-18T07:47:30.144Z,60.89
2023-06-18T07:50:03.018Z,60.10
2023-06-18T07:52:35.099Z,59.30
2023-06-18T07:55:07.038Z,57.71
2023-06-18T07:57:39.098Z,57.67
2023-06-18T08:00:11.368Z,57.54
2023-06-18T08:02:42.802Z,57.69
2023-06-18T08:05:14.256Z,57.16
2023-06-18T08:07:45.734Z,57.05
2023-06-18T08:10:17.122Z,56.97
2023-06-18T08:12:48.475Z,56.43
2023-06-18T08:15:19.822Z,56.51
2023-06-18T08:17:51.196Z,56.14
2023-06-18T08:20:22.720Z,56.57
2023-06-18T08:22:54.237Z,56.08
2023-06-18T08:25:25.583Z,55.40
2023-06-18T08:27:57.595Z,55.10
2023-06-18T08:30:29.062Z,55.25
2023-06-18T08:33:00.567Z,54.35
2023-06-18T08:35:32.017Z,53.37
2023-06-18T08:38:04.320Z,52.95
2023-06-18T08:40:49.446Z,51.60
2023-06-18T08:43:27.241Z,51.89
2023-06-18T08:46:04.751Z,49.67
2023-06-18T08:48:43.538Z,50.28
2023-06-18T08:51:17.147Z,49.82
2023-06-18T08:53:55.153Z,49.07
2023-06-18T08:56:28.334Z,49.76
2023-06-18T08:59:02.266Z,49.47
2023-06-18T09:01:33.875Z,49.46
2023-06-18T09:04:06.363Z,49.16
2023-06-18T09:06:38.069Z,48.03
2023-06-18T09:09:09.493Z,48.03
2023-06-18T09:11:40.879Z,47.47
2023-06-18T09:14:12.285Z,46.57
2023-06-18T09:16:44.237Z,46.36
2023-06-18T09:19:17.205Z,46.69
2023-06-18T09:21:48.721Z,46.06
2023-06-18T09:24:24.472Z,45.69
2023-06-18T09:27:04.227Z,45.24
2023-06-18T09:29:41.628Z,45.53
2023-06-18T09:32:15.198Z,44.64
2023-06-18T09:34:46.677Z,45.87
2023-06-18T09:37:20.492Z,44.98
2023-06-18T09:39:54.625Z,44.81
2023-06-18T09:42:30.867Z,43.72
2023-06-18T09:45:02.292Z,44.17
2023-06-18T09:47:33.652Z,43.71
2023-06-18T09:50:06.712Z,44.00
2023-06-18T09:52:46.074Z,42.58
2023-06-18T09:55:32.327Z,43.99
2023-06-18T09:58:03.776Z,44.09
2023-06-18T10:00:35.113Z,43.22
2023-06-18T10:03:08.477Z,43.01
2023-06-18T10:05:40.393Z,42.76
2023-06-18T10:08:12.010Z,43.29
2023-06-18T10:10:43.922Z,43.39
2023-06-18T10:13:15.381Z,42.75
2023-06-18T10:15:46.965Z,42.93
2023-06-18T10:18:24.056Z,42.40
2023-06-18T10:21:01.901Z,42.07
2023-06-18T10:23:34.373Z,42.06
2023-06-18T10:26:08.994Z,41.88
2023-06-18T10:28:41.625Z,41.45
2023-06-18T10:31:13.218Z,41.36
2023-06-18T10:33:46.162Z,41.14
2023-06-18T10:36:17.862Z,41.07
2023-06-18T10:38:49.955Z,41.41
2023-06-18T10:41:21.659Z,41.08
2023-06-18T10:43:55.637Z,40.49
2023-06-18T10:46:27.681Z,40.47
2023-06-18T10:49:16.143Z,38.82
2023-06-18T10:52:15.246Z,39.59
2023-06-18T10:54:46.573Z,39.77
2023-06-18T10:57:18.057Z,39.85
2023-06-18T10:59:50.962Z,39.33
2023-06-18T11:02:35.106Z,39.35
2023-06-18T11:05:06.766Z,39.11
2023-06-18T11:07:40.897Z,39.32
2023-06-18T11:10:12.438Z,39.00
2023-06-18T11:12:44.867Z,39.70
2023-06-18T11:15:18.394Z,39.32
2023-06-18T11:17:55.232Z,38.25
2023-06-18T11:20:27.572Z,38.81
2023-06-18T11:23:01.247Z,38.94
2023-06-18T11:25:32.725Z,38.67
2023-06-18T11:28:06.070Z,38.70
2023-06-18T11:30:38.481Z,39.03
2023-06-18T11:33:09.872Z,38.63
2023-06-18T11:35:41.332Z,38.31
2023-06-18T11:38:12.910Z,38.22
2023-06-18T11:40:55.778Z,37.66
2023-06-18T11:43:27.175Z,38.35
2023-06-18T11:45:58.951Z,37.49
2023-06-18T11:48:34.161Z,37.87
2023-06-18T11:51:05.506Z,37.50
2023-06-18T11:53:36.868Z,36.93
2023-06-18T11:56:08.334Z,36.46
2023-06-18T11:58:39.974Z,36.65
2023-06-18T12:01:17.274Z,36.44
2023-06-18T12:16:36.282Z,36.47
2023-06-18T12:19:16.075Z,36.30
2023-06-18T12:21:53.971Z,35.85
2023-06-18T12:24:29.834Z,36.63
2023-06-18T12:27:05.575Z,35.53
2023-06-18T12:29:41.630Z,35.81
2023-06-18T12:32:13.562Z,35.82
2023-06-18T12:34:44.893Z,35.38
2023-06-18T12:37:16.249Z,34.96
2023-06-18T12:40:10.924Z,34.32
2023-06-18T12:42:43.399Z,34.32
2023-06-18T12:45:25.735Z,34.55
2023-06-18T12:47:58.598Z,34.77
2023-06-18T12:50:39.082Z,34.05
2023-06-18T12:53:19.146Z,34.01
2023-06-18T12:55:54.319Z,33.84
2023-06-18T12:58:28.294Z,33.72
2023-06-18T13:01:00.400Z,33.00
2023-06-18T13:03:32.489Z,32.32
2023-06-18T13:06:04.037Z,33.01
2023-06-18T13:08:36.061Z,32.95
2023-06-18T13:11:07.406Z,32.67
2023-06-18T13:13:38.816Z,32.65
2023-06-18T13:16:10.581Z,32.64
2023-06-18T13:18:42.528Z,32.60
2023-06-18T13:21:14.215Z,32.05
2023-06-18T13:23:46.270Z,31.88
2023-06-18T13:26:19.797Z,32.11
2023-06-18T13:28:51.548Z,31.48
2023-06-18T13:31:22.918Z,31.91
2023-06-18T13:33:54.292Z,31.73
2023-06-18T13:36:25.755Z,31.80
2023-06-18T13:38:57.418Z,31.72
2023-06-18T13:41:28.757Z,31.39
2023-06-18T13:44:00.139Z,31.02
2023-06-18T13:46:31.785Z,31.82
2023-06-18T13:49:04.143Z,31.71
2023-06-18T13:51:35.565Z,31.54
2023-06-18T13:54:07.261Z,31.48
2023-06-18T13:56:38.696Z,32.25
2023-06-18T13:59:10.125Z,31.34
2023-06-18T14:01:42.131Z,31.17
2023-06-18T14:04:13.611Z,30.46
2023-06-18T14:06:45.563Z,30.60
2023-06-18T14:09:19.258Z,30.38
2023-06-18T14:11:51.551Z,30.75
2023-06-18T14:14:23.476Z,30.74
2023-06-18T14:16:54.797Z,30.81
2023-06-18T14:19:26.232Z,30.36
2023-06-18T14:21:58.656Z,30.26
2023-06-18T14:24:30.249Z,29.97
2023-06-18T14:27:03.298Z,30.37
2023-06-18T14:29:34.687Z,30.53
2023-06-18T14:32:06.083Z,30.41
2023-06-18T14:34:37.402Z,30.74
2023-06-18T14:37:09.297Z,31.15
2023-06-18T14:39:40.759Z,30.78
2023-06-18T14:42:12.096Z,30.62
2023-06-18T14:44:43.822Z,30.57
2023-06-18T14:47:15.162Z,30.24
2023-06-18T14:49:54.021Z,29.94
2023-06-18T14:52:25.349Z,29.54
2023-06-18T14:54:56.675Z,29.87
2023-06-18T14:57:28.116Z,30.36
2023-06-18T14:59:59.611Z,30.21
2023-06-18T15:02:30.980Z,29.07
2023-06-18T15:05:02.702Z,29.52
2023-06-18T15:07:34.570Z,29.45
2023-06-18T15:10:06.371Z,28.73
2023-06-18T15:12:37.776Z,29.12
2023-06-18T15:15:09.569Z,29.22
2023-06-18T15:17:41.370Z,29.19
2023-06-18T15:20:14.937Z,29.10
2023-06-18T15:22:46.264Z,29.41
2023-06-18T15:25:17.795Z,29.24
2023-06-18T15:27:49.108Z,29.37
2023-06-18T15:30:20.554Z,29.72
2023-06-18T15:32:51.980Z,29.91
2023-06-18T15:35:23.549Z,30.35
2023-06-18T15:38:01.004Z,29.99
2023-06-18T15:40:32.354Z,29.84
2023-06-18T15:43:03.676Z,29.29
2023-06-18T15:45:35.010Z,29.31
2023-06-18T15:48:06.412Z,29.36
2023-06-18T15:50:37.770Z,29.49
2023-06-18T15:53:09.133Z,29.39
2023-06-18T15:55:40.669Z,29.40
2023-06-18T15:58:12.001Z,29.68
2023-06-18T16:00:43.358Z,29.58
2023-06-18T16:03:14.748Z,29.86
2023-06-18T16:05:46.312Z,29.42
2023-06-18T16:08:17.709Z,29.56
2023-06-18T16:10:49.263Z,29.45
2023-06-18T16:13:22.240Z,30.05
2023-06-18T16:15:53.633Z,30.01
2023-06-18T16:18:24.987Z,30.09
2023-06-18T16:20:56.530Z,29.66
2023-06-18T16:23:27.851Z,29.79
2023-06-18T16:25:59.632Z,29.86
2023-06-18T16:28:32.420Z,30.02
2023-06-18T16:31:03.753Z,30.15
2023-06-18T16:33:35.088Z,30.01
2023-06-18T16:36:06.677Z,30.34
2023-06-18T16:38:38.304Z,30.94
2023-06-18T16:41:09.893Z,30.49
2023-06-18T16:43:41.280Z,30.47
2023-06-18T16:46:12.811Z,30.99
2023-06-18T16:48:44.310Z,31.22
2023-06-18T16:51:15.744Z,30.45
2023-06-18T16:53:47.062Z,31.07
2023-06-18T16:56:18.374Z,30.53
2023-06-18T16:58:50.538Z,30.93
2023-06-18T17:01:22.014Z,31.29
2023-06-18T17:03:53.605Z,31.30
2023-06-18T17:06:25.054Z,31.77
2023-06-18T17:08:56.353Z,31.98
2023-06-18T17:11:28.995Z,31.74
2023-06-18T17:14:01.526Z,31.69
2023-06-18T17:16:32.985Z,32.23
2023-06-18T17:19:04.316Z,32.15
2023-06-18T17:21:36.160Z,32.31
2023-06-18T17:24:07.602Z,32.54
2023-06-18T17:26:39.010Z,32.74
2023-06-18T17:29:10.797Z,32.77
2023-06-18T17:31:42.164Z,32.58
2023-06-18T17:34:15.585Z,33.64
2023-06-18T17:36:48.103Z,33.80
2023-06-18T17:39:20.958Z,33.83
2023-06-18T17:41:52.520Z,33.90
2023-06-18T17:44:23.961Z,33.96
2023-06-18T17:46:55.374Z,34.29
2023-06-18T17:49:27.123Z,33.77
2023-06-18T17:51:58.528Z,33.87
2023-06-18T17:54:29.893Z,33.72
2023-06-18T17:57:01.245Z,33.54
2023-06-18T17:59:32.592Z,34.36
2023-06-18T18:02:04.293Z,33.96
2023-06-18T18:04:37.368Z,33.72
2023-06-18T18:07:08.793Z,34.49
2023-06-18T18:09:40.174Z,34.18
2023-06-18T18:12:11.573Z,34.47
2023-06-18T18:14:43.251Z,34.34
2023-06-18T18:17:14.839Z,34.41
2023-06-18T18:19:46.175Z,34.75
2023-06-18T18:22:19.211Z,34.27
2023-06-18T18:24:50.672Z,34.86
2023-06-18T18:27:22.013Z,34.64
2023-06-18T18:29:53.425Z,34.87
2023-06-18T18:32:25.608Z,34.92
2023-06-18T18:34:57.081Z,34.66
2023-06-18T18:37:28.444Z,34.90
2023-06-18T18:39:59.832Z,34.60
2023-06-18T18:42:31.237Z,34.54
2023-06-18T18:45:03.714Z,34.05
2023-06-18T18:47:35.053Z,34.57
2023-06-18T18:50:06.889Z,34.93
2023-06-18T18:52:38.517Z,35.02
2023-06-18T18:55:09.975Z,35.16
2023-06-18T18:57:41.370Z,34.48
2023-06-18T19:00:14.040Z,35.50
2023-06-18T19:02:45.640Z,35.51
2023-06-18T19:05:17.055Z,36.28
2023-06-18T19:07:50.467Z,36.03
2023-06-18T19:10:22.614Z,36.35
2023-06-18T19:12:54.311Z,37.38
2023-06-18T19:15:25.675Z,37.31
2023-06-18T19:17:57.084Z,38.29
2023-06-18T19:20:28.511Z,38.37
2023-06-18T19:22:59.915Z,39.00
2023-06-18T19:25:34.104Z,39.66
2023-06-18T19:28:05.467Z,40.34
2023-06-18T19:30:43.045Z,40.41
2023-06-18T19:33:14.578Z,40.55
2023-06-18T19:35:45.999Z,41.41
2023-06-18T19:38:17.452Z,42.08
2023-06-18T19:40:49.810Z,42.91
2023-06-18T19:43:22.532Z,43.27
2023-06-18T19:45:53.946Z,43.09
2023-06-18T19:48:25.303Z,43.80
2023-06-18T19:50:56.659Z,43.72
2023-06-18T19:53:28.100Z,44.47
2023-06-18T19:55:59.883Z,44.48
2023-06-18T19:58:31.278Z,44.87
2023-06-18T20:01:02.621Z,44.76
2023-06-18T20:03:34.974Z,45.26
2023-06-18T20:06:06.677Z,45.15
2023-06-18T20:08:38.113Z,45.65
2023-06-18T20:11:09.547Z,46.05
2023-06-18T20:13:40.863Z,45.73
2023-06-18T20:16:12.535Z,45.93
2023-06-18T20:18:43.937Z,46.13
2023-06-18T20:21:15.293Z,46.20
2023-06-18T20:23:46.619Z,46.71
2023-06-18T20:26:18.009Z,46.90
2023-06-18T20:28:49.330Z,47.25
2023-06-18T20:31:20.893Z,46.83
2023-06-18T20:33:52.284Z,46.75
2023-06-18T20:36:23.617Z,46.66
2023-06-18T20:38:54.967Z,46.90
2023-06-18T20:41:26.290Z,46.99
2023-06-18T20:43:57.647Z,47.19
2023-06-18T20:46:29.062Z,47.37
2023-06-18T20:49:01.319Z,47.10
2023-06-18T20:51:32.662Z,47.56
2023-06-18T20:54:04.105Z,47.37
2023-06-18T20:56:35.511Z,47.98
2023-06-18T20:59:06.823Z,48.08
2023-06-18T21:01:38.363Z,48.04
2023-06-18T21:04:10.067Z,48.23
2023-06-18T21:06:41.399Z,48.34
2023-06-18T21:09:12.793Z,48.07
2023-06-18T21:11:44.121Z,48.58
2023-06-18T21:14:15.950Z,48.10
2023-06-18T21:16:47.336Z,48.47
2023-06-18T21:19:20.600Z,48.52
2023-06-18T21:21:51.971Z,48.31
2023-06-18T21:24:23.312Z,48.74
2023-06-18T21:26:54.697Z,48.79
2023-06-18T21:29:26.603Z,48.90
2023-06-18T21:31:59.234Z,48.99
2023-06-18T21:34:30.551Z,49.02
2023-06-18T21:37:02.200Z,49.38
2023-06-18T21:39:33.602Z,49.14
2023-06-18T21:42:05.283Z,49.51
2023-06-18T21:44:36.816Z,49.63
2023-06-18T21:47:08.203Z,48.99
2023-06-18T21:49:39.777Z,49.49
2023-06-18T21:52:11.079Z,49.89
2023-06-18T21:54:42.417Z,49.92
2023-06-18T21:57:13.803Z,49.62
2023-06-18T21:59:45.122Z,50.11
2023-06-18T22:02:16.538Z,50.08
2023-06-18T22:04:48.022Z,50.08
2023-06-18T22:07:19.443Z,50.34
2023-06-18T22:09:50.833Z,50.60
2023-06-18T22:12:22.728Z,50.74
2023-06-18T22:14:54.072Z,50.83
2023-06-18T22:17:26.797Z,50.93
2023-06-18T22:19:58.205Z,51.29
2023-06-18T22:22:29.530Z,51.54
2023-06-18T22:25:00.849Z,51.33
2023-06-18T22:27:32.207Z,52.09
2023-06-18T22:30:04.365Z,52.02
2023-06-18T22:32:35.783Z,52.35
2023-06-18T22:35:08.226Z,52.56
2023-06-18T22:37:39.560Z,52.65
2023-06-18T22:40:11.326Z,52.73
2023-06-18T22:42:42.648Z,52.85
2023-06-18T22:45:13.984Z,52.86
2023-06-18T22:47:45.322Z,53.29
2023-06-18T22:50:16.820Z,53.19
2023-06-18T22:52:48.186Z,53.29
2023-06-18T22:55:19.514Z,53.32
2023-06-18T22:57:50.961Z,53.15
2023-06-18T23:00:22.553Z,53.23
2023-06-18T23:02:54.193Z,53.30
2023-06-18T23:05:25.617Z,53.25
2023-06-18T23:07:57.123Z,53.34
2023-06-18T23:10:28.470Z,53.41
2023-06-18T23:12:59.867Z,53.13
2023-06-18T23:15:31.311Z,53.29
2023-06-18T23:18:02.910Z,53.08
2023-06-18T23:20:35.555Z,53.31
2023-06-18T23:23:06.968Z,53.78
2023-06-18T23:25:38.354Z,53.52
2023-06-18T23:28:09.683Z,53.61
2023-06-18T23:30:41.075Z,53.68
2023-06-18T23:33:12.529Z,53.58
2023-06-18T23:35:44.432Z,53.56
2023-06-18T23:38:15.851Z,53.61
2023-06-18T23:40:47.240Z,53.43
2023-06-18T23:43:19.626Z,53.73
2023-06-18T23:45:51.086Z,53.63
2023-06-18T23:48:22.515Z,53.55
2023-06-18T23:50:56.165Z,53.55
2023-06-18T23:53:27.501Z,53.53
2023-06-18T23:55:58.901Z,54.09
2023-06-18T23:58:30.311Z,53.92
